sensor_id;sensor_type;location;lat;lon;timestamp;temperature;humidity
43679;DHT22;29279;50.858;4.392;2023-05-10T00:01:46;14.20;99.90
43679;DHT22;29279;50.858;4.392;2023-05-10T00:04:12;14.10;99.90
43679;DHT22;29279;50.858;4.392;2023-05-10T00:06:37;14.20;99.90
43679;DHT22;29279;50.858;4.392;2023-05-10T00:09:03;14.20;99.90
43679;DHT22;29279;50.858;4.392;2023-05-10T00:11:29;14.20;99.90
43679;DHT22;29279;50.858;4.392;2023-05-10T00:13:55;14.20;99.90
43679;DHT22;29279;50.858;4.392;2023-05-10T00:16:20;14.20;99.90
43679;DHT22;29279;50.858;4.392;2023-05-10T00:18:46;14.10;99.90
43679;DHT22;29279;50.858;4.392;2023-05-10T00:21:12;14.10;99.90
43679;DHT22;29279;50.858;4.392;2023-05-10T00:23:38;14.00;99.90
43679;DHT22;29279;50.858;4.392;2023-05-10T00:26:04;14.20;99.90
43679;DHT22;29279;50.858;4.392;2023-05-10T00:28:30;14.20;99.90
43679;DHT22;29279;50.858;4.392;2023-05-10T00:30:55;14.20;99.90
43679;DHT22;29279;50.858;4.392;2023-05-10T00:33:21;14.20;99.90
43679;DHT22;29279;50.858;4.392;2023-05-10T00:35:47;14.20;99.90
43679;DHT22;29279;50.858;4.392;2023-05-10T00:38:12;14.20;99.90
43679;DHT22;29279;50.858;4.392;2023-05-10T00:40:38;14.10;99.90
43679;DHT22;29279;50.858;4.392;2023-05-10T00:43:04;14.10;99.90
43679;DHT22;29279;50.858;4.392;2023-05-10T00:45:35;14.10;99.90
43679;DHT22;29279;50.858;4.392;2023-05-10T00:48:02;14.10;99.90
43679;DHT22;29279;50.858;4.392;2023-05-10T00:50:29;14.10;99.90
43679;DHT22;29279;50.858;4.392;2023-05-10T00:52:56;14.10;99.90
43679;DHT22;29279;50.858;4.392;2023-05-10T00:55:23;14.20;99.90
43679;DHT22;29279;50.858;4.392;2023-05-10T00:57:53;14.20;99.90
43679;DHT22;29279;50.858;4.392;2023-05-10T01:00:19;14.30;99.90
43679;DHT22;29279;50.858;4.392;2023-05-10T01:02:45;14.30;99.90
43679;DHT22;29279;50.858;4.392;2023-05-10T01:05:12;14.20;99.90
43679;DHT22;29279;50.858;4.392;2023-05-10T01:07:38;14.20;99.90
43679;DHT22;29279;50.858;4.392;2023-05-10T01:10:07;14.30;99.90
43679;DHT22;29279;50.858;4.392;2023-05-10T01:12:38;14.20;99.90
43679;DHT22;29279;50.858;4.392;2023-05-10T01:15:08;14.20;99.90
43679;DHT22;29279;50.858;4.392;2023-05-10T01:17:38;14.00;99.90
43679;DHT22;29279;50.858;4.392;2023-05-10T01:20:06;13.90;99.90
43679;DHT22;29279;50.858;4.392;2023-05-10T01:29:18;14.20;99.90
43679;DHT22;29279;50.858;4.392;2023-05-10T01:32:12;14.20;99.90
43679;DHT22;29279;50.858;4.392;2023-05-10T01:37:45;14.20;99.90
43679;DHT22;29279;50.858;4.392;2023-05-10T01:40:39;14.20;99.90
43679;DHT22;29279;50.858;4.392;2023-05-10T01:43:26;14.20;99.90
43679;DHT22;29279;50.858;4.392;2023-05-10T01:46:03;14.10;99.90
43679;DHT22;29279;50.858;4.392;2023-05-10T01:48:37;14.00;99.90
43679;DHT22;29279;50.858;4.392;2023-05-10T01:51:06;14.00;99.90
43679;DHT22;29279;50.858;4.392;2023-05-10T01:53:34;14.00;99.90
43679;DHT22;29279;50.858;4.392;2023-05-10T01:56:03;14.10;99.90
43679;DHT22;29279;50.858;4.392;2023-05-10T01:58:32;14.20;99.90
43679;DHT22;29279;50.858;4.392;2023-05-10T02:01:01;14.30;99.90
43679;DHT22;29279;50.858;4.392;2023-05-10T02:03:29;14.20;99.90
43679;DHT22;29279;50.858;4.392;2023-05-10T02:05:57;14.10;99.90
43679;DHT22;29279;50.858;4.392;2023-05-10T02:08:24;14.00;99.90
43679;DHT22;29279;50.858;4.392;2023-05-10T02:10:54;14.00;99.90
43679;DHT22;29279;50.858;4.392;2023-05-10T02:13:21;14.00;99.90
43679;DHT22;29279;50.858;4.392;2023-05-10T02:15:48;14.00;99.90
43679;DHT22;29279;50.858;4.392;2023-05-10T02:18:15;14.10;99.90
43679;DHT22;29279;50.858;4.392;2023-05-10T02:20:44;13.90;99.90
43679;DHT22;29279;50.858;4.392;2023-05-10T02:23:11;13.90;99.90
43679;DHT22;29279;50.858;4.392;2023-05-10T02:25:37;13.90;99.90
43679;DHT22;29279;50.858;4.392;2023-05-10T02:28:06;13.80;99.90
43679;DHT22;29279;50.858;4.392;2023-05-10T02:30:33;13.70;99.90
43679;DHT22;29279;50.858;4.392;2023-05-10T02:33:01;13.90;99.90
43679;DHT22;29279;50.858;4.392;2023-05-10T02:35:28;14.00;99.90
43679;DHT22;29279;50.858;4.392;2023-05-10T02:37:55;14.10;99.90
43679;DHT22;29279;50.858;4.392;2023-05-10T02:40:23;14.10;99.90
43679;DHT22;29279;50.858;4.392;2023-05-10T02:42:52;14.10;99.90
43679;DHT22;29279;50.858;4.392;2023-05-10T02:45:23;14.10;99.90
43679;DHT22;29279;50.858;4.392;2023-05-10T02:47:50;14.00;99.90
43679;DHT22;29279;50.858;4.392;2023-05-10T02:50:16;14.10;99.90
43679;DHT22;29279;50.858;4.392;2023-05-10T02:52:50;14.00;99.90
43679;DHT22;29279;50.858;4.392;2023-05-10T02:55:21;14.00;99.90
43679;DHT22;29279;50.858;4.392;2023-05-10T02:58:14;14.10;99.90
43679;DHT22;29279;50.858;4.392;2023-05-10T03:00:39;14.00;99.90
43679;DHT22;29279;50.858;4.392;2023-05-10T03:03:05;14.10;99.90
43679;DHT22;29279;50.858;4.392;2023-05-10T03:05:31;14.10;99.90
43679;DHT22;29279;50.858;4.392;2023-05-10T03:07:59;14.10;99.90
43679;DHT22;29279;50.858;4.392;2023-05-10T03:10:30;14.10;99.90
43679;DHT22;29279;50.858;4.392;2023-05-10T03:16:29;13.90;99.90
43679;DHT22;29279;50.858;4.392;2023-05-10T03:19:10;13.80;99.90
43679;DHT22;29279;50.858;4.392;2023-05-10T03:21:41;13.90;99.90
43679;DHT22;29279;50.858;4.392;2023-05-10T03:24:09;13.90;99.90
43679;DHT22;29279;50.858;4.392;2023-05-10T03:26:38;13.90;99.90
43679;DHT22;29279;50.858;4.392;2023-05-10T03:29:06;13.70;99.90
43679;DHT22;29279;50.858;4.392;2023-05-10T03:31:33;13.70;99.90
43679;DHT22;29279;50.858;4.392;2023-05-10T03:33:59;13.70;99.90
43679;DHT22;29279;50.858;4.392;2023-05-10T03:36:25;13.80;99.90
43679;DHT22;29279;50.858;4.392;2023-05-10T03:38:50;13.80;99.90
43679;DHT22;29279;50.858;4.392;2023-05-10T03:41:16;13.90;99.90
43679;DHT22;29279;50.858;4.392;2023-05-10T03:43:42;13.90;99.90
43679;DHT22;29279;50.858;4.392;2023-05-10T03:46:08;14.00;99.90
43679;DHT22;29279;50.858;4.392;2023-05-10T03:48:33;14.10;99.90
43679;DHT22;29279;50.858;4.392;2023-05-10T03:50:59;14.20;99.90
43679;DHT22;29279;50.858;4.392;2023-05-10T03:53:25;14.30;99.90
43679;DHT22;29279;50.858;4.392;2023-05-10T03:55:51;14.20;99.90
43679;DHT22;29279;50.858;4.392;2023-05-10T03:58:16;14.20;99.90
43679;DHT22;29279;50.858;4.392;2023-05-10T04:00:42;14.10;99.90
43679;DHT22;29279;50.858;4.392;2023-05-10T04:03:10;14.10;99.90
43679;DHT22;29279;50.858;4.392;2023-05-10T04:05:36;14.00;99.90
43679;DHT22;29279;50.858;4.392;2023-05-10T04:08:02;14.10;99.90
43679;DHT22;29279;50.858;4.392;2023-05-10T04:10:28;14.20;99.90
43679;DHT22;29279;50.858;4.392;2023-05-10T04:12:54;14.30;99.90
43679;DHT22;29279;50.858;4.392;2023-05-10T04:15:20;14.40;99.90
43679;DHT22;29279;50.858;4.392;2023-05-10T04:17:46;14.50;99.90
43679;DHT22;29279;50.858;4.392;2023-05-10T04:20:12;14.50;99.90
43679;DHT22;29279;50.858;4.392;2023-05-10T04:22:38;14.40;99.90
43679;DHT22;29279;50.858;4.392;2023-05-10T04:25:04;14.50;99.90
43679;DHT22;29279;50.858;4.392;2023-05-10T04:27:30;14.50;99.90
43679;DHT22;29279;50.858;4.392;2023-05-10T04:29:57;14.40;99.90
43679;DHT22;29279;50.858;4.392;2023-05-10T04:32:23;14.40;99.90
43679;DHT22;29279;50.858;4.392;2023-05-10T04:34:48;14.40;99.90
43679;DHT22;29279;50.858;4.392;2023-05-10T04:37:14;14.30;99.90
43679;DHT22;29279;50.858;4.392;2023-05-10T04:39:40;14.30;99.90
43679;DHT22;29279;50.858;4.392;2023-05-10T04:42:06;14.40;99.90
43679;DHT22;29279;50.858;4.392;2023-05-10T04:44:32;14.50;99.90
43679;DHT22;29279;50.858;4.392;2023-05-10T04:46:59;14.50;99.90
43679;DHT22;29279;50.858;4.392;2023-05-10T04:49:24;14.70;99.90
43679;DHT22;29279;50.858;4.392;2023-05-10T04:51:51;14.70;99.90
43679;DHT22;29279;50.858;4.392;2023-05-10T04:54:17;14.80;99.90
43679;DHT22;29279;50.858;4.392;2023-05-10T04:56:43;14.90;99.90
43679;DHT22;29279;50.858;4.392;2023-05-10T04:59:08;14.90;99.90
43679;DHT22;29279;50.858;4.392;2023-05-10T05:01:34;14.90;99.90
43679;DHT22;29279;50.858;4.392;2023-05-10T05:04:00;15.00;99.90
43679;DHT22;29279;50.858;4.392;2023-05-10T05:06:25;15.00;99.90
43679;DHT22;29279;50.858;4.392;2023-05-10T05:08:52;14.90;99.90
43679;DHT22;29279;50.858;4.392;2023-05-10T05:11:18;14.80;99.90
43679;DHT22;29279;50.858;4.392;2023-05-10T05:13:44;14.80;99.90
43679;DHT22;29279;50.858;4.392;2023-05-10T05:16:10;14.90;99.90
43679;DHT22;29279;50.858;4.392;2023-05-10T05:18:36;14.90;99.90
43679;DHT22;29279;50.858;4.392;2023-05-10T05:21:02;14.90;99.90
43679;DHT22;29279;50.858;4.392;2023-05-10T05:23:28;14.90;99.90
43679;DHT22;29279;50.858;4.392;2023-05-10T05:25:53;14.90;99.90
43679;DHT22;29279;50.858;4.392;2023-05-10T05:28:22;15.00;99.90
43679;DHT22;29279;50.858;4.392;2023-05-10T05:30:48;15.10;99.90
43679;DHT22;29279;50.858;4.392;2023-05-10T05:33:14;15.10;99.90
43679;DHT22;29279;50.858;4.392;2023-05-10T05:35:41;15.10;99.90
43679;DHT22;29279;50.858;4.392;2023-05-10T05:38:08;15.10;99.90
43679;DHT22;29279;50.858;4.392;2023-05-10T05:40:34;15.10;99.90
43679;DHT22;29279;50.858;4.392;2023-05-10T05:42:59;15.10;99.90
43679;DHT22;29279;50.858;4.392;2023-05-10T05:45:26;15.10;99.90
43679;DHT22;29279;50.858;4.392;2023-05-10T05:47:52;15.00;99.90
43679;DHT22;29279;50.858;4.392;2023-05-10T05:50:17;14.90;99.90
43679;DHT22;29279;50.858;4.392;2023-05-10T05:52:43;14.80;99.90
43679;DHT22;29279;50.858;4.392;2023-05-10T05:55:09;14.70;99.90
43679;DHT22;29279;50.858;4.392;2023-05-10T05:57:34;14.60;99.90
43679;DHT22;29279;50.858;4.392;2023-05-10T06:00:00;14.60;99.90
43679;DHT22;29279;50.858;4.392;2023-05-10T06:02:26;14.50;99.90
43679;DHT22;29279;50.858;4.392;2023-05-10T06:04:51;14.60;99.90
43679;DHT22;29279;50.858;4.392;2023-05-10T06:07:17;14.80;99.90
43679;DHT22;29279;50.858;4.392;2023-05-10T06:09:43;14.80;99.90
43679;DHT22;29279;50.858;4.392;2023-05-10T06:12:08;14.70;99.90
43679;DHT22;29279;50.858;4.392;2023-05-10T06:14:34;14.70;99.90
43679;DHT22;29279;50.858;4.392;2023-05-10T06:17:00;14.70;99.90
43679;DHT22;29279;50.858;4.392;2023-05-10T06:19:25;14.70;99.90
43679;DHT22;29279;50.858;4.392;2023-05-10T06:21:52;14.60;99.90
43679;DHT22;29279;50.858;4.392;2023-05-10T06:24:17;14.60;99.90
43679;DHT22;29279;50.858;4.392;2023-05-10T06:26:43;14.60;99.90
43679;DHT22;29279;50.858;4.392;2023-05-10T06:29:09;14.50;99.90
43679;DHT22;29279;50.858;4.392;2023-05-10T06:31:34;14.40;99.90
43679;DHT22;29279;50.858;4.392;2023-05-10T06:34:00;14.50;99.90
43679;DHT22;29279;50.858;4.392;2023-05-10T06:36:26;14.30;99.90
43679;DHT22;29279;50.858;4.392;2023-05-10T06:38:52;14.10;99.90
43679;DHT22;29279;50.858;4.392;2023-05-10T06:41:18;14.00;99.90
43679;DHT22;29279;50.858;4.392;2023-05-10T06:43:44;13.90;99.90
43679;DHT22;29279;50.858;4.392;2023-05-10T06:46:10;13.90;99.90
43679;DHT22;29279;50.858;4.392;2023-05-10T06:48:35;13.90;99.90
43679;DHT22;29279;50.858;4.392;2023-05-10T06:51:01;13.90;99.90
43679;DHT22;29279;50.858;4.392;2023-05-10T06:53:27;13.90;99.90
43679;DHT22;29279;50.858;4.392;2023-05-10T06:55:53;13.90;99.90
43679;DHT22;29279;50.858;4.392;2023-05-10T06:58:18;13.90;99.90
43679;DHT22;29279;50.858;4.392;2023-05-10T07:00:44;13.80;99.90
43679;DHT22;29279;50.858;4.392;2023-05-10T07:03:10;13.70;99.90
43679;DHT22;29279;50.858;4.392;2023-05-10T07:05:36;13.60;99.90
43679;DHT22;29279;50.858;4.392;2023-05-10T07:08:02;13.50;99.90
43679;DHT22;29279;50.858;4.392;2023-05-10T07:10:28;13.60;99.90
43679;DHT22;29279;50.858;4.392;2023-05-10T07:12:53;13.60;99.90
43679;DHT22;29279;50.858;4.392;2023-05-10T07:15:22;13.60;99.90
43679;DHT22;29279;50.858;4.392;2023-05-10T07:17:48;13.70;99.90
43679;DHT22;29279;50.858;4.392;2023-05-10T07:20:13;13.50;99.90
43679;DHT22;29279;50.858;4.392;2023-05-10T07:22:39;13.40;99.90
43679;DHT22;29279;50.858;4.392;2023-05-10T07:25:05;13.30;99.90
43679;DHT22;29279;50.858;4.392;2023-05-10T07:27:31;13.20;99.90
43679;DHT22;29279;50.858;4.392;2023-05-10T07:29:57;13.40;99.90
43679;DHT22;29279;50.858;4.392;2023-05-10T07:32:24;13.40;99.90
43679;DHT22;29279;50.858;4.392;2023-05-10T07:34:49;13.50;99.90
43679;DHT22;29279;50.858;4.392;2023-05-10T07:37:15;13.50;99.90
43679;DHT22;29279;50.858;4.392;2023-05-10T07:39:41;13.50;99.90
43679;DHT22;29279;50.858;4.392;2023-05-10T07:42:06;13.40;99.90
43679;DHT22;29279;50.858;4.392;2023-05-10T07:44:32;13.30;99.90
43679;DHT22;29279;50.858;4.392;2023-05-10T07:46:58;13.30;99.90
43679;DHT22;29279;50.858;4.392;2023-05-10T07:49:23;13.30;99.90
43679;DHT22;29279;50.858;4.392;2023-05-10T07:51:49;13.40;99.90
43679;DHT22;29279;50.858;4.392;2023-05-10T07:54:15;13.50;99.90
43679;DHT22;29279;50.858;4.392;2023-05-10T07:56:41;13.60;99.90
43679;DHT22;29279;50.858;4.392;2023-05-10T07:59:15;13.70;99.90
43679;DHT22;29279;50.858;4.392;2023-05-10T08:01:41;13.80;99.90
43679;DHT22;29279;50.858;4.392;2023-05-10T08:04:07;14.00;99.90
43679;DHT22;29279;50.858;4.392;2023-05-10T08:06:33;14.10;99.90
43679;DHT22;29279;50.858;4.392;2023-05-10T08:08:58;14.20;99.90
43679;DHT22;29279;50.858;4.392;2023-05-10T08:11:24;14.20;99.90
43679;DHT22;29279;50.858;4.392;2023-05-10T08:13:50;14.20;99.90
43679;DHT22;29279;50.858;4.392;2023-05-10T08:16:16;14.20;99.90
43679;DHT22;29279;50.858;4.392;2023-05-10T08:18:44;14.10;99.90
43679;DHT22;29279;50.858;4.392;2023-05-10T08:21:13;14.20;99.90
43679;DHT22;29279;50.858;4.392;2023-05-10T08:23:39;14.40;99.90
43679;DHT22;29279;50.858;4.392;2023-05-10T08:26:05;14.50;99.90
43679;DHT22;29279;50.858;4.392;2023-05-10T08:28:31;14.40;99.90
43679;DHT22;29279;50.858;4.392;2023-05-10T08:30:56;14.50;99.90
43679;DHT22;29279;50.858;4.392;2023-05-10T08:33:22;14.40;99.90
43679;DHT22;29279;50.858;4.392;2023-05-10T08:35:48;14.50;99.90
43679;DHT22;29279;50.858;4.392;2023-05-10T08:38:14;14.60;99.90
43679;DHT22;29279;50.858;4.392;2023-05-10T08:40:42;14.80;99.90
43679;DHT22;29279;50.858;4.392;2023-05-10T08:43:10;14.80;99.90
43679;DHT22;29279;50.858;4.392;2023-05-10T08:45:44;14.80;99.90
43679;DHT22;29279;50.858;4.392;2023-05-10T08:48:14;14.80;99.90
43679;DHT22;29279;50.858;4.392;2023-05-10T08:50:41;14.80;99.90
43679;DHT22;29279;50.858;4.392;2023-05-10T08:53:12;14.80;99.90
43679;DHT22;29279;50.858;4.392;2023-05-10T08:55:39;14.80;99.90
43679;DHT22;29279;50.858;4.392;2023-05-10T08:58:06;14.80;99.90
43679;DHT22;29279;50.858;4.392;2023-05-10T09:00:32;14.90;99.90
43679;DHT22;29279;50.858;4.392;2023-05-10T09:02:59;14.80;99.90
43679;DHT22;29279;50.858;4.392;2023-05-10T09:05:25;14.80;99.90
43679;DHT22;29279;50.858;4.392;2023-05-10T09:07:51;14.70;99.90
43679;DHT22;29279;50.858;4.392;2023-05-10T09:10:17;14.60;99.90
43679;DHT22;29279;50.858;4.392;2023-05-10T09:12:44;14.50;99.90
43679;DHT22;29279;50.858;4.392;2023-05-10T09:15:11;14.40;99.90
43679;DHT22;29279;50.858;4.392;2023-05-10T09:17:38;14.40;99.90
43679;DHT22;29279;50.858;4.392;2023-05-10T09:20:06;14.40;99.90
43679;DHT22;29279;50.858;4.392;2023-05-10T09:22:35;14.40;99.90
43679;DHT22;29279;50.858;4.392;2023-05-10T09:25:09;14.50;99.90
43679;DHT22;29279;50.858;4.392;2023-05-10T09:27:38;14.50;99.90
43679;DHT22;29279;50.858;4.392;2023-05-10T09:30:04;14.50;99.90
43679;DHT22;29279;50.858;4.392;2023-05-10T09:32:41;14.30;99.90
43679;DHT22;29279;50.858;4.392;2023-05-10T09:35:12;14.30;99.90
43679;DHT22;29279;50.858;4.392;2023-05-10T09:37:45;14.20;99.90
43679;DHT22;29279;50.858;4.392;2023-05-10T09:40:16;14.10;99.90
43679;DHT22;29279;50.858;4.392;2023-05-10T09:42:50;14.10;99.90
43679;DHT22;29279;50.858;4.392;2023-05-10T09:45:16;14.00;99.90
43679;DHT22;29279;50.858;4.392;2023-05-10T09:47:42;13.90;99.90
43679;DHT22;29279;50.858;4.392;2023-05-10T09:50:09;13.80;99.90
43679;DHT22;29279;50.858;4.392;2023-05-10T09:52:51;13.80;99.90
43679;DHT22;29279;50.858;4.392;2023-05-10T09:55:19;13.80;99.90
43679;DHT22;29279;50.858;4.392;2023-05-10T09:57:46;13.80;99.90
43679;DHT22;29279;50.858;4.392;2023-05-10T10:00:22;13.80;99.90
43679;DHT22;29279;50.858;4.392;2023-05-10T10:02:55;13.90;99.90
43679;DHT22;29279;50.858;4.392;2023-05-10T10:05:34;14.00;99.90
43679;DHT22;29279;50.858;4.392;2023-05-10T10:08:04;14.10;99.90
43679;DHT22;29279;50.858;4.392;2023-05-10T10:10:32;14.10;99.90
43679;DHT22;29279;50.858;4.392;2023-05-10T10:12:58;14.00;99.90
43679;DHT22;29279;50.858;4.392;2023-05-10T10:15:25;14.10;99.90
43679;DHT22;29279;50.858;4.392;2023-05-10T10:17:52;14.10;99.90
43679;DHT22;29279;50.858;4.392;2023-05-10T10:20:19;14.00;99.90
43679;DHT22;29279;50.858;4.392;2023-05-10T10:22:46;14.00;99.90
43679;DHT22;29279;50.858;4.392;2023-05-10T10:25:14;14.00;99.90
43679;DHT22;29279;50.858;4.392;2023-05-10T10:35:32;14.00;99.90
43679;DHT22;29279;50.858;4.392;2023-05-10T10:37:58;14.00;99.90
43679;DHT22;29279;50.858;4.392;2023-05-10T10:40:34;14.00;99.90
43679;DHT22;29279;50.858;4.392;2023-05-10T10:43:25;14.10;99.90
43679;DHT22;29279;50.858;4.392;2023-05-10T10:48:49;14.30;99.90
43679;DHT22;29279;50.858;4.392;2023-05-10T10:51:17;14.30;99.90
43679;DHT22;29279;50.858;4.392;2023-05-10T10:53:43;14.50;99.90
43679;DHT22;29279;50.858;4.392;2023-05-10T10:56:10;14.50;99.90
43679;DHT22;29279;50.858;4.392;2023-05-10T10:58:38;14.60;99.90
43679;DHT22;29279;50.858;4.392;2023-05-10T11:01:17;14.70;99.90
43679;DHT22;29279;50.858;4.392;2023-05-10T11:06:41;14.70;99.90
43679;DHT22;29279;50.858;4.392;2023-05-10T11:09:10;14.70;99.90
43679;DHT22;29279;50.858;4.392;2023-05-10T11:11:49;14.80;99.90
43679;DHT22;29279;50.858;4.392;2023-05-10T11:14:20;14.90;99.90
43679;DHT22;29279;50.858;4.392;2023-05-10T11:16:46;15.00;99.90
43679;DHT22;29279;50.858;4.392;2023-05-10T11:19:16;15.00;99.90
43679;DHT22;29279;50.858;4.392;2023-05-10T11:22:11;15.10;99.90
43679;DHT22;29279;50.858;4.392;2023-05-10T11:24:37;15.20;99.90
43679;DHT22;29279;50.858;4.392;2023-05-10T11:27:02;15.30;99.90
43679;DHT22;29279;50.858;4.392;2023-05-10T11:29:28;15.40;99.90
43679;DHT22;29279;50.858;4.392;2023-05-10T11:31:57;15.50;99.90
43679;DHT22;29279;50.858;4.392;2023-05-10T11:34:31;15.70;99.90
43679;DHT22;29279;50.858;4.392;2023-05-10T11:36:59;15.80;99.90
43679;DHT22;29279;50.858;4.392;2023-05-10T11:39:30;16.00;99.90
43679;DHT22;29279;50.858;4.392;2023-05-10T11:41:56;16.10;99.90
43679;DHT22;29279;50.858;4.392;2023-05-10T11:44:22;16.20;99.90
43679;DHT22;29279;50.858;4.392;2023-05-10T11:46:49;16.40;99.90
43679;DHT22;29279;50.858;4.392;2023-05-10T11:49:15;16.80;99.90
43679;DHT22;29279;50.858;4.392;2023-05-10T11:51:40;16.90;99.90
43679;DHT22;29279;50.858;4.392;2023-05-10T11:54:10;16.80;99.90
43679;DHT22;29279;50.858;4.392;2023-05-10T11:56:37;16.90;99.90
43679;DHT22;29279;50.858;4.392;2023-05-10T11:59:03;16.80;99.90
43679;DHT22;29279;50.858;4.392;2023-05-10T12:01:29;16.70;99.90
43679;DHT22;29279;50.858;4.392;2023-05-10T12:04:00;16.60;99.90
43679;DHT22;29279;50.858;4.392;2023-05-10T12:06:28;16.50;99.90
43679;DHT22;29279;50.858;4.392;2023-05-10T12:08:55;16.60;99.90
43679;DHT22;29279;50.858;4.392;2023-05-10T12:11:24;16.70;99.90
43679;DHT22;29279;50.858;4.392;2023-05-10T12:13:50;16.70;99.90
43679;DHT22;29279;50.858;4.392;2023-05-10T12:16:18;16.70;99.90
43679;DHT22;29279;50.858;4.392;2023-05-10T12:18:45;16.90;99.90
43679;DHT22;29279;50.858;4.392;2023-05-10T12:21:13;17.00;99.90
43679;DHT22;29279;50.858;4.392;2023-05-10T12:23:40;17.00;99.90
43679;DHT22;29279;50.858;4.392;2023-05-10T12:26:09;17.00;99.90
43679;DHT22;29279;50.858;4.392;2023-05-10T12:28:36;17.20;99.90
43679;DHT22;29279;50.858;4.392;2023-05-10T12:31:02;17.40;99.90
43679;DHT22;29279;50.858;4.392;2023-05-10T12:33:39;17.50;99.90
43679;DHT22;29279;50.858;4.392;2023-05-10T12:36:07;17.60;99.90
43679;DHT22;29279;50.858;4.392;2023-05-10T12:38:34;17.70;99.90
43679;DHT22;29279;50.858;4.392;2023-05-10T12:41:02;17.90;99.90
43679;DHT22;29279;50.858;4.392;2023-05-10T12:43:29;18.00;99.90
43679;DHT22;29279;50.858;4.392;2023-05-10T12:45:54;18.10;99.90
43679;DHT22;29279;50.858;4.392;2023-05-10T12:48:20;18.10;99.90
43679;DHT22;29279;50.858;4.392;2023-05-10T12:50:46;18.30;99.90
43679;DHT22;29279;50.858;4.392;2023-05-10T12:53:14;18.50;99.90
43679;DHT22;29279;50.858;4.392;2023-05-10T12:55:43;18.50;99.90
43679;DHT22;29279;50.858;4.392;2023-05-10T12:58:09;18.30;99.90
43679;DHT22;29279;50.858;4.392;2023-05-10T13:00:35;18.40;99.90
43679;DHT22;29279;50.858;4.392;2023-05-10T13:03:06;18.50;99.90
43679;DHT22;29279;50.858;4.392;2023-05-10T13:05:32;18.60;99.90
43679;DHT22;29279;50.858;4.392;2023-05-10T13:07:58;18.60;99.90
43679;DHT22;29279;50.858;4.392;2023-05-10T13:10:24;18.50;99.90
43679;DHT22;29279;50.858;4.392;2023-05-10T13:12:50;18.40;99.90
43679;DHT22;29279;50.858;4.392;2023-05-10T13:15:16;18.40;99.90
43679;DHT22;29279;50.858;4.392;2023-05-10T13:17:42;18.60;99.90
43679;DHT22;29279;50.858;4.392;2023-05-10T13:20:08;18.70;99.90
43679;DHT22;29279;50.858;4.392;2023-05-10T13:22:37;18.70;99.90
43679;DHT22;29279;50.858;4.392;2023-05-10T13:25:03;18.80;99.90
43679;DHT22;29279;50.858;4.392;2023-05-10T13:27:29;18.70;99.90
43679;DHT22;29279;50.858;4.392;2023-05-10T13:29:54;19.10;99.90
43679;DHT22;29279;50.858;4.392;2023-05-10T13:32:20;19.30;99.90
43679;DHT22;29279;50.858;4.392;2023-05-10T13:34:46;19.20;99.90
43679;DHT22;29279;50.858;4.392;2023-05-10T13:37:12;19.10;99.90
43679;DHT22;29279;50.858;4.392;2023-05-10T13:39:38;19.00;99.90
43679;DHT22;29279;50.858;4.392;2023-05-10T13:42:04;19.10;99.90
43679;DHT22;29279;50.858;4.392;2023-05-10T13:44:30;19.00;99.90
43679;DHT22;29279;50.858;4.392;2023-05-10T13:46:56;19.00;99.90
43679;DHT22;29279;50.858;4.392;2023-05-10T13:49:22;19.10;99.90
43679;DHT22;29279;50.858;4.392;2023-05-10T13:51:48;19.00;99.90
43679;DHT22;29279;50.858;4.392;2023-05-10T13:54:13;19.10;99.90
43679;DHT22;29279;50.858;4.392;2023-05-10T13:56:40;19.00;99.90
43679;DHT22;29279;50.858;4.392;2023-05-10T13:59:09;18.90;99.90
43679;DHT22;29279;50.858;4.392;2023-05-10T14:01:34;18.80;99.90
43679;DHT22;29279;50.858;4.392;2023-05-10T14:04:00;18.70;99.90
43679;DHT22;29279;50.858;4.392;2023-05-10T14:06:26;18.50;99.90
43679;DHT22;29279;50.858;4.392;2023-05-10T14:08:52;18.30;99.90
43679;DHT22;29279;50.858;4.392;2023-05-10T14:11:19;18.20;99.90
43679;DHT22;29279;50.858;4.392;2023-05-10T14:13:45;18.20;99.90
43679;DHT22;29279;50.858;4.392;2023-05-10T14:16:10;18.30;99.90
43679;DHT22;29279;50.858;4.392;2023-05-10T14:18:37;18.50;99.90
43679;DHT22;29279;50.858;4.392;2023-05-10T14:21:03;18.50;99.90
43679;DHT22;29279;50.858;4.392;2023-05-10T14:23:29;18.40;99.90
43679;DHT22;29279;50.858;4.392;2023-05-10T14:25:55;18.40;99.90
43679;DHT22;29279;50.858;4.392;2023-05-10T14:28:21;18.50;99.90
43679;DHT22;29279;50.858;4.392;2023-05-10T14:30:48;18.50;99.90
43679;DHT22;29279;50.858;4.392;2023-05-10T14:33:13;18.60;99.90
43679;DHT22;29279;50.858;4.392;2023-05-10T14:35:39;18.50;99.90
43679;DHT22;29279;50.858;4.392;2023-05-10T14:38:05;18.50;99.90
43679;DHT22;29279;50.858;4.392;2023-05-10T14:40:30;18.50;99.90
43679;DHT22;29279;50.858;4.392;2023-05-10T14:42:56;18.50;99.90
43679;DHT22;29279;50.858;4.392;2023-05-10T14:45:22;18.40;99.90
43679;DHT22;29279;50.858;4.392;2023-05-10T14:47:49;18.30;99.90
43679;DHT22;29279;50.858;4.392;2023-05-10T14:50:15;18.10;99.90
43679;DHT22;29279;50.858;4.392;2023-05-10T14:52:42;17.70;99.90
43679;DHT22;29279;50.858;4.392;2023-05-10T14:55:08;17.40;99.90
43679;DHT22;29279;50.858;4.392;2023-05-10T14:57:34;17.20;99.90
43679;DHT22;29279;50.858;4.392;2023-05-10T15:00:03;17.10;99.90
43679;DHT22;29279;50.858;4.392;2023-05-10T15:02:30;17.00;99.90
43679;DHT22;29279;50.858;4.392;2023-05-10T15:04:56;16.80;99.90
43679;DHT22;29279;50.858;4.392;2023-05-10T15:07:23;16.60;99.90
43679;DHT22;29279;50.858;4.392;2023-05-10T15:09:50;16.30;99.90
43679;DHT22;29279;50.858;4.392;2023-05-10T15:12:17;16.30;99.90
43679;DHT22;29279;50.858;4.392;2023-05-10T15:14:43;16.30;99.90
43679;DHT22;29279;50.858;4.392;2023-05-10T15:17:09;16.30;99.90
43679;DHT22;29279;50.858;4.392;2023-05-10T15:19:35;16.30;99.90
43679;DHT22;29279;50.858;4.392;2023-05-10T15:22:02;16.20;99.90
43679;DHT22;29279;50.858;4.392;2023-05-10T15:24:28;16.00;99.90
43679;DHT22;29279;50.858;4.392;2023-05-10T15:26:54;15.90;99.90
43679;DHT22;29279;50.858;4.392;2023-05-10T15:29:20;15.80;99.90
43679;DHT22;29279;50.858;4.392;2023-05-10T15:31:52;15.90;99.90
43679;DHT22;29279;50.858;4.392;2023-05-10T15:34:18;16.10;99.90
43679;DHT22;29279;50.858;4.392;2023-05-10T15:36:44;16.30;99.90
43679;DHT22;29279;50.858;4.392;2023-05-10T15:39:11;16.40;99.90
43679;DHT22;29279;50.858;4.392;2023-05-10T15:41:37;16.50;99.90
43679;DHT22;29279;50.858;4.392;2023-05-10T15:44:03;16.40;99.90
43679;DHT22;29279;50.858;4.392;2023-05-10T15:46:29;16.60;99.90
43679;DHT22;29279;50.858;4.392;2023-05-10T15:48:58;16.80;99.90
43679;DHT22;29279;50.858;4.392;2023-05-10T15:51:25;16.80;99.90
43679;DHT22;29279;50.858;4.392;2023-05-10T15:53:51;16.70;99.90
43679;DHT22;29279;50.858;4.392;2023-05-10T15:56:16;16.80;99.90
43679;DHT22;29279;50.858;4.392;2023-05-10T15:58:42;16.90;99.90